Αρχική σελίδα
METAR-TAF:

METAR-TAF

Αεροδρόμια :

Μπαμάκο, Μάλι

γεωγραφικό πλάτος: 12-32N, γεωγραφικό μήκος: 007-57W, υψόμετρο: 380 μ

Παρών καιρός

Η αναφορά έγινε 38 λεπτά πριν, στις 03:30 UTC
Άνεμος 7 kt από Β
Θερμοκρασία 27°C
Υγρασία 12%
Πίεση 1011 hPa
Ορατότητα 10 χλμ και άνω
Δεν υπάρχουν νέφη με βάση κάτω από τα 1500 μ. και δεν υπάρχουν νέφη σωρειτομελανίτες.

METAR: GABS 200330Z 01007KT CAVOK 27/M05 Q1011 NOSIG

Χρόνος: 04:08 (04:08 UTC)

Πρόγνωση Καιρού

Η αναφορά έγινε 5 ώρες και 8 λεπτά πριν, στις 23:00 UTC
Η πρόγνωση ισχύει από τις 20 στις 00 UTC έως τις 21 στις 06 UTC
Άνεμος 5 kt από Β
Ορατότητα 10 χλμ και άνω
Δεν υπάρχουν νέφη με βάση κάτω από τα 1500 μ. και δεν υπάρχουν νέφη σωρειτομελανίτες.

TAF: GABS 192300Z 2000/2106 36005KT CAVOK

Μετεωρολογικές αναφορές και προγνώσεις για περισσότερα από 4000 αεροδρόμια (δελτία METAR και TAF).

Οι διαθέσιμοι σταθμοί απεικονίζονται στο χάρτη με κίτρινες και κόκκινες κουκκίδες.

Μετακινήστε το ποντίκι πάνω από τις κουκκίδες για να δείτε το όνομα του σταθμού.

Στη συνέχεια, κάντε κλικ για να δείτε τις μετεωρολογικές αναφορές και τις προγνώσεις καιρού.

Για να αλλάξετε το χάρτη: κάντε κλικ στα πράσινα κουμπιά με τον μαύρο σταυρό για να ζουμάρετε, στο πράσινο κουμπί με την παύλα για να αφαιρέσετε το ζουμ ή στα πράσινα βέλη για να αντιπαραβάλλετε χάρτες.


METAR-TAF: